createdAt,value
2022-11-05T00:05:28.972Z,0.75
2022-11-05T00:15:49.116Z,0.98
2022-11-05T00:25:57.981Z,0.68
2022-11-05T00:35:59.380Z,1.15
2022-11-05T00:46:00.898Z,0.68
2022-11-05T00:56:02.548Z,0.70
2022-11-05T01:06:12.841Z,0.80
2022-11-05T01:16:14.340Z,0.50
2022-11-05T01:26:15.801Z,0.65
2022-11-05T01:36:17.530Z,0.70
2022-11-05T01:46:23.827Z,0.70
2022-11-05T01:56:29.378Z,0.63
2022-11-05T02:06:32.869Z,0.67
2022-11-05T02:16:48.307Z,0.50
2022-11-05T02:36:54.225Z,0.60
2022-11-05T02:47:03.114Z,0.50
2022-11-05T02:57:04.977Z,0.50
2022-11-05T03:07:31.152Z,0.50
2022-11-05T03:17:50.432Z,0.60
2022-11-05T03:28:00.133Z,0.55
2022-11-05T03:38:05.479Z,1.08
2022-11-05T03:48:08.186Z,0.40
2022-11-05T03:58:10.509Z,0.40
2022-11-05T04:08:30.672Z,0.50
2022-11-05T04:18:32.167Z,0.50
2022-11-05T04:28:53.571Z,0.50
2022-11-05T04:38:54.975Z,0.40
2022-11-05T04:48:56.425Z,0.43
2022-11-05T04:58:57.818Z,0.40
2022-11-05T05:08:59.235Z,0.43
2022-11-05T05:19:00.668Z,0.45
2022-11-05T05:29:02.396Z,0.40
2022-11-05T05:39:07.878Z,0.40
2022-11-05T05:49:12.608Z,0.40
2022-11-05T05:59:14.457Z,0.70
2022-11-05T06:09:16.143Z,0.60
2022-11-05T06:19:17.629Z,0.50
2022-11-05T06:29:19.061Z,0.80
2022-11-05T06:39:20.449Z,0.57
2022-11-05T06:49:24.777Z,0.50
2022-11-05T06:59:26.237Z,0.50
2022-11-05T07:09:28.293Z,0.90
2022-11-05T07:19:29.676Z,0.82
2022-11-05T07:29:31.101Z,0.60
2022-11-05T07:39:32.560Z,1.08
2022-11-05T07:49:34.058Z,0.60
2022-11-05T07:59:35.465Z,1.15
2022-11-05T08:09:36.912Z,0.80
2022-11-05T08:19:38.339Z,1.10
2022-11-05T08:29:39.796Z,1.10
2022-11-05T08:39:41.260Z,1.00
2022-11-05T08:49:42.654Z,0.80
2022-11-05T08:59:44.042Z,0.82
2022-11-05T09:09:45.553Z,0.55
2022-11-05T09:19:48.785Z,0.50
2022-11-05T09:29:50.179Z,0.70
2022-11-05T09:39:51.576Z,0.70
2022-11-05T09:49:55.155Z,0.70
2022-11-05T10:00:02.807Z,0.68
2022-11-05T10:10:23.308Z,0.80
2022-11-05T10:20:33.881Z,0.50
2022-11-05T10:30:35.418Z,0.60
2022-11-05T10:40:57.653Z,0.70
2022-11-05T10:50:59.099Z,0.55
2022-11-05T11:01:10.789Z,0.40
2022-11-05T11:11:24.593Z,0.30
2022-11-05T11:21:26.809Z,1.27
2022-11-05T11:31:30.905Z,0.50
2022-11-05T11:41:35.994Z,0.50
2022-11-05T11:51:49.476Z,0.75
2022-11-05T12:02:29.526Z,0.50
2022-11-05T12:12:34.089Z,0.40
2022-11-05T12:22:53.952Z,0.50
2022-11-05T12:32:58.209Z,6.78
2022-11-05T12:43:31.083Z,5.77
2022-11-05T12:53:38.988Z,5.10
2022-11-05T13:03:45.991Z,4.25
2022-11-05T13:13:58.125Z,3.10
2022-11-05T13:24:17.097Z,2.90
2022-11-05T13:34:18.513Z,2.53
2022-11-05T13:44:54.240Z,2.05
2022-11-05T13:55:07.688Z,2.15
2022-11-05T14:05:25.318Z,1.80
2022-11-05T14:15:28.444Z,1.90
2022-11-05T14:25:30.077Z,1.65
2022-11-05T14:35:38.004Z,1.95
2022-11-05T14:45:41.972Z,2.33
2022-11-05T14:55:43.803Z,1.60
2022-11-05T15:05:48.441Z,1.52
2022-11-05T15:15:50.756Z,1.60
2022-11-05T15:26:07.351Z,1.70
2022-11-05T15:36:11.492Z,1.83
2022-11-05T15:46:19.675Z,1.45
2022-11-05T15:56:45.306Z,1.17
2022-11-05T16:06:52.502Z,1.70
2022-11-05T16:16:54.022Z,1.40
2022-11-05T16:27:02.606Z,1.17
2022-11-05T16:37:12.671Z,1.30
2022-11-05T16:47:14.147Z,1.00
2022-11-05T16:57:28.501Z,1.55
2022-11-05T17:07:29.963Z,1.20
2022-11-05T17:17:31.386Z,1.02
2022-11-05T17:27:32.812Z,1.60
2022-11-05T17:37:34.599Z,1.25
2022-11-05T17:47:36.056Z,1.33
2022-11-05T17:57:37.458Z,1.10
2022-11-05T18:07:38.859Z,1.63
2022-11-05T18:17:40.862Z,1.20
2022-11-05T18:27:42.465Z,1.35
2022-11-05T18:37:43.920Z,1.25
2022-11-05T18:47:45.478Z,1.40
2022-11-05T18:57:47.065Z,0.90
2022-11-05T19:07:48.485Z,1.10
2022-11-05T19:17:49.928Z,1.05
2022-11-05T19:27:51.419Z,1.00
2022-11-05T19:37:53.526Z,1.00
2022-11-05T19:47:54.983Z,1.33
2022-11-05T19:57:56.408Z,1.02
2022-11-05T20:07:57.913Z,1.08
2022-11-05T20:17:59.359Z,0.90
2022-11-05T20:28:00.842Z,0.82
2022-11-05T20:38:02.243Z,0.88
2022-11-05T20:48:04.441Z,1.00
2022-11-05T20:58:05.851Z,1.00
2022-11-05T21:08:07.314Z,1.17
2022-11-05T21:18:08.846Z,1.10
2022-11-05T21:28:11.818Z,1.00
2022-11-05T21:38:15.684Z,1.00
2022-11-05T21:48:17.385Z,0.90
2022-11-05T21:58:37.985Z,0.95
2022-11-05T22:08:39.427Z,0.82
2022-11-05T22:18:41.010Z,0.88
2022-11-05T22:28:42.479Z,0.90
2022-11-05T22:38:44.076Z,1.20
2022-11-05T22:48:45.693Z,0.88
2022-11-05T22:58:48.004Z,0.80
2022-11-05T23:09:08.127Z,0.82
2022-11-05T23:19:28.339Z,0.80
2022-11-05T23:29:30.150Z,0.77
2022-11-05T23:39:31.625Z,0.82
2022-11-05T23:49:33.123Z,0.60
2022-11-05T23:59:34.577Z,0.68
